createdAt,value
2019-05-17T00:01:37.829Z,27.50
2019-05-17T00:04:08.750Z,27.50
2019-05-17T00:06:39.514Z,27.50
2019-05-17T00:09:10.431Z,27.60
2019-05-17T00:11:41.386Z,27.60
2019-05-17T00:14:12.915Z,27.60
2019-05-17T00:16:43.952Z,27.50
2019-05-17T00:19:26.957Z,27.60
2019-05-17T00:21:57.819Z,27.60
2019-05-17T00:24:28.743Z,27.70
2019-05-17T00:26:59.530Z,27.60
2019-05-17T00:29:30.458Z,27.70
2019-05-17T00:32:01.260Z,27.70
2019-05-17T00:34:32.083Z,27.70
2019-05-17T00:37:02.919Z,27.70
2019-05-17T00:39:36.503Z,27.80
2019-05-17T00:42:06.978Z,27.80
2019-05-17T00:44:38.104Z,27.80
2019-05-17T00:47:09.129Z,27.90
2019-05-17T00:49:39.896Z,27.90
2019-05-17T00:52:10.641Z,27.90
2019-05-17T00:54:41.450Z,27.90
2019-05-17T00:57:12.245Z,28.00
2019-05-17T00:59:42.956Z,28.00
2019-05-17T01:02:16.159Z,28.00
2019-05-17T01:04:47.631Z,28.00
2019-05-17T01:07:18.694Z,28.10
2019-05-17T01:09:49.948Z,28.10
2019-05-17T01:12:20.844Z,28.10
2019-05-17T01:14:51.735Z,28.20
2019-05-17T01:17:22.491Z,28.20
2019-05-17T01:19:53.474Z,28.20
2019-05-17T01:22:26.164Z,28.30
2019-05-17T01:24:56.925Z,28.40
2019-05-17T01:27:27.995Z,28.40
2019-05-17T01:29:58.837Z,28.50
2019-05-17T01:32:29.582Z,28.50
2019-05-17T01:35:00.449Z,28.50
2019-05-17T01:37:31.265Z,28.50
2019-05-17T01:40:02.095Z,28.60
2019-05-17T01:42:33.043Z,28.70
2019-05-17T01:45:03.828Z,28.80
2019-05-17T01:47:36.587Z,28.80
2019-05-17T01:50:08.244Z,28.90
2019-05-17T01:52:39.215Z,29.00
2019-05-17T01:55:10.945Z,29.00
2019-05-17T01:57:41.783Z,29.10
2019-05-17T02:00:13.759Z,29.20
2019-05-17T02:02:47.129Z,29.20
2019-05-17T02:05:22.085Z,29.30
2019-05-17T02:07:53.216Z,29.30
2019-05-17T02:10:27.026Z,29.40
2019-05-17T02:12:57.083Z,29.40
2019-05-17T02:15:28.141Z,29.50
2019-05-17T02:17:59.103Z,29.60
2019-05-17T02:20:30.919Z,29.70
2019-05-17T02:23:01.873Z,29.90
2019-05-17T02:25:32.864Z,30.00
2019-05-17T02:28:03.756Z,30.10
2019-05-17T02:30:34.777Z,30.10
2019-05-17T02:33:06.086Z,30.10
2019-05-17T02:35:37.003Z,30.20
2019-05-17T02:38:07.894Z,30.40
2019-05-17T02:40:38.791Z,30.50
2019-05-17T02:43:13.019Z,30.60
2019-05-17T02:45:43.583Z,30.70
2019-05-17T02:48:14.254Z,30.80
2019-05-17T02:50:48.169Z,30.80
2019-05-17T02:53:18.017Z,30.80
2019-05-17T02:55:48.841Z,30.90
2019-05-17T02:58:23.075Z,30.90
2019-05-17T03:00:53.211Z,31.00
2019-05-17T03:03:25.583Z,31.00
2019-05-17T03:05:56.399Z,31.10
2019-05-17T03:08:27.474Z,31.10
2019-05-17T03:10:58.388Z,31.10
2019-05-17T03:13:32.645Z,31.10
2019-05-17T03:16:03.343Z,31.20
2019-05-17T03:18:33.935Z,31.20
2019-05-17T03:21:04.960Z,31.40
2019-05-17T03:23:35.968Z,31.40
2019-05-17T03:26:06.997Z,31.50
2019-05-17T03:28:42.632Z,31.60
2019-05-17T03:31:16.839Z,31.70
2019-05-17T03:33:47.468Z,31.70
2019-05-17T03:36:18.426Z,31.80
2019-05-17T03:38:49.498Z,31.80
2019-05-17T03:41:28.449Z,31.90
2019-05-17T03:43:53.703Z,31.90
2019-05-17T03:46:24.545Z,31.90
2019-05-17T03:48:56.518Z,31.90
2019-05-17T03:51:27.753Z,32.00
2019-05-17T03:53:58.496Z,32.10
2019-05-17T03:56:29.418Z,32.10
2019-05-17T03:59:03.396Z,32.10
2019-05-17T04:01:32.884Z,32.20
2019-05-17T04:04:03.752Z,32.20
2019-05-17T04:06:34.822Z,32.20
2019-05-17T04:09:06.790Z,32.30
2019-05-17T04:11:37.672Z,32.30
2019-05-17T04:14:08.674Z,32.30
2019-05-17T04:16:42.607Z,32.40
2019-05-17T04:19:14.012Z,32.50
2019-05-17T04:21:45.764Z,32.50
2019-05-17T04:24:16.616Z,32.60
2019-05-17T04:26:47.559Z,32.80
2019-05-17T04:29:18.248Z,32.80
2019-05-17T04:31:49.091Z,32.90
2019-05-17T04:34:22.321Z,33.00
2019-05-17T04:36:52.418Z,33.00
2019-05-17T04:39:23.357Z,33.10
2019-05-17T04:41:54.966Z,33.10
2019-05-17T04:44:26.264Z,33.30
2019-05-17T04:46:56.989Z,33.30
2019-05-17T04:49:28.198Z,33.30
2019-05-17T04:51:59.074Z,33.40
2019-05-17T04:54:33.085Z,33.50
2019-05-17T04:57:02.691Z,33.60
2019-05-17T04:59:34.183Z,33.60
2019-05-17T05:02:05.323Z,33.60
2019-05-17T05:04:38.450Z,33.60
2019-05-17T05:07:08.770Z,33.60
2019-05-17T05:09:42.757Z,33.70
2019-05-17T05:12:12.712Z,33.80
2019-05-17T05:14:43.876Z,33.80
2019-05-17T05:17:14.925Z,33.80
2019-05-17T05:19:45.741Z,33.80
2019-05-17T05:22:17.485Z,33.80
2019-05-17T05:24:48.526Z,33.90
2019-05-17T05:27:19.464Z,33.90
2019-05-17T05:29:52.093Z,33.90
2019-05-17T05:32:22.660Z,33.90
2019-05-17T05:34:53.633Z,33.80
2019-05-17T05:37:24.606Z,33.80
2019-05-17T05:39:55.359Z,33.90
2019-05-17T05:42:26.364Z,33.80
2019-05-17T05:44:57.347Z,33.80
2019-05-17T05:47:28.392Z,33.80
2019-05-17T05:50:01.435Z,33.80
2019-05-17T05:52:32.369Z,33.90
2019-05-17T05:55:03.894Z,34.00
2019-05-17T05:57:34.646Z,33.90
2019-05-17T06:00:08.314Z,33.90
2019-05-17T06:02:41.709Z,33.90
2019-05-17T06:05:14.874Z,33.90
2019-05-17T06:07:44.121Z,34.00
2019-05-17T06:10:15.339Z,34.00
2019-05-17T06:12:46.192Z,34.10
2019-05-17T06:15:17.705Z,34.20
2019-05-17T06:18:07.722Z,34.20
2019-05-17T06:20:38.694Z,34.20
2019-05-17T06:23:11.933Z,34.20
2019-05-17T06:25:43.534Z,34.10
2019-05-17T06:28:13.920Z,34.10
2019-05-17T06:30:45.348Z,34.20
2019-05-17T06:33:26.991Z,34.20
2019-05-17T06:35:48.376Z,34.20
2019-05-17T06:38:19.339Z,34.30
2019-05-17T06:40:52.189Z,34.20
2019-05-17T06:43:22.247Z,34.20
2019-05-17T06:45:53.172Z,34.20
2019-05-17T06:48:24.042Z,34.30
2019-05-17T06:50:54.760Z,34.30
2019-05-17T06:53:25.655Z,34.40
2019-05-17T06:55:56.931Z,34.30
2019-05-17T06:58:31.389Z,34.30
2019-05-17T07:01:01.662Z,34.30
2019-05-17T07:03:32.720Z,34.30
2019-05-17T07:06:04.870Z,34.30
2019-05-17T07:08:36.016Z,34.30
2019-05-17T07:11:07.039Z,34.30
2019-05-17T07:13:39.532Z,34.30
2019-05-17T07:16:10.340Z,34.40
2019-05-17T07:18:41.021Z,34.40
2019-05-17T07:21:11.867Z,34.40
2019-05-17T07:23:42.946Z,34.40
2019-05-17T07:26:15.492Z,34.40
2019-05-17T07:28:46.327Z,34.40
2019-05-17T07:31:19.633Z,34.40
2019-05-17T07:33:50.453Z,34.40
2019-05-17T07:36:21.496Z,34.40
2019-05-17T07:38:52.236Z,34.40
2019-05-17T07:41:23.066Z,34.40
2019-05-17T07:43:53.866Z,34.40
2019-05-17T07:46:24.710Z,34.40
2019-05-17T07:48:55.703Z,34.40
2019-05-17T07:51:26.759Z,34.40
2019-05-17T07:53:59.594Z,34.40
2019-05-17T07:56:30.605Z,34.50
2019-05-17T07:59:01.430Z,34.60
2019-05-17T08:01:32.416Z,34.70
2019-05-17T08:04:03.380Z,34.70
2019-05-17T08:06:34.384Z,34.70
2019-05-17T08:09:13.319Z,34.70
2019-05-17T08:11:39.689Z,34.70
2019-05-17T08:14:10.935Z,34.60
2019-05-17T08:16:41.845Z,34.60
2019-05-17T08:19:12.663Z,34.60
2019-05-17T08:21:43.636Z,34.50
2019-05-17T08:24:14.569Z,34.50
2019-05-17T08:26:46.741Z,34.50
2019-05-17T08:29:17.493Z,34.50
2019-05-17T08:31:49.683Z,34.60
2019-05-17T08:34:20.791Z,34.60
2019-05-17T08:36:52.489Z,34.60
2019-05-17T08:39:23.531Z,34.60
2019-05-17T08:41:54.992Z,34.70
2019-05-17T08:44:25.932Z,34.70
2019-05-17T08:46:59.467Z,34.70
2019-05-17T08:49:30.526Z,34.70
2019-05-17T08:52:01.599Z,34.80
2019-05-17T08:54:32.720Z,34.80
2019-05-17T08:57:03.771Z,34.80
2019-05-17T08:59:34.569Z,34.70
2019-05-17T09:02:05.640Z,34.70
2019-05-17T09:04:36.475Z,34.70
2019-05-17T09:07:09.399Z,34.60
2019-05-17T09:09:39.908Z,34.60
2019-05-17T09:12:11.146Z,34.60
2019-05-17T09:14:42.205Z,34.50
2019-05-17T09:17:13.055Z,34.50
2019-05-17T09:19:43.856Z,34.50
2019-05-17T09:22:14.746Z,34.50
2019-05-17T09:24:49.814Z,34.40
2019-05-17T09:27:20.487Z,34.40
2019-05-17T09:29:51.657Z,34.40
2019-05-17T09:32:22.646Z,34.40
2019-05-17T09:34:53.544Z,34.30
2019-05-17T09:37:24.646Z,34.30
2019-05-17T09:39:55.492Z,34.30
2019-05-17T09:42:26.489Z,34.30
2019-05-17T09:45:00.324Z,34.30
2019-05-17T09:47:31.482Z,34.20
2019-05-17T09:50:02.431Z,34.10
2019-05-17T09:52:33.310Z,34.10
2019-05-17T09:55:04.323Z,34.10
2019-05-17T09:57:35.438Z,34.10
2019-05-17T10:00:09.903Z,34.00
2019-05-17T10:02:41.015Z,34.00
2019-05-17T10:05:12.336Z,34.00
2019-05-17T10:07:43.019Z,33.90
2019-05-17T10:10:14.313Z,33.90
2019-05-17T10:12:45.182Z,33.90
2019-05-17T10:15:15.991Z,33.90
2019-05-17T10:17:46.847Z,33.80
2019-05-17T10:20:19.847Z,33.70
2019-05-17T10:22:50.584Z,33.80
2019-05-17T10:25:29.360Z,33.70
2019-05-17T10:28:01.572Z,33.70
2019-05-17T10:30:32.390Z,33.70
2019-05-17T10:33:03.292Z,33.70
2019-05-17T10:35:34.489Z,33.70
2019-05-17T10:38:13.919Z,33.70
2019-05-17T10:40:45.132Z,33.70
2019-05-17T10:43:16.100Z,33.70
2019-05-17T10:45:49.099Z,33.60
2019-05-17T10:48:21.407Z,33.60
2019-05-17T10:50:52.923Z,33.60
2019-05-17T10:53:29.572Z,33.60
2019-05-17T10:56:00.693Z,33.60
2019-05-17T10:58:32.723Z,33.50
2019-05-17T11:01:03.744Z,33.50
2019-05-17T11:03:34.669Z,33.50
2019-05-17T11:06:05.466Z,33.40
2019-05-17T11:08:36.660Z,33.40
2019-05-17T11:11:10.041Z,33.40
2019-05-17T11:13:39.887Z,33.40
2019-05-17T11:16:10.817Z,33.40
2019-05-17T11:18:41.757Z,33.30
2019-05-17T11:21:12.568Z,33.30
2019-05-17T11:23:43.356Z,33.30
2019-05-17T11:26:14.577Z,33.20
2019-05-17T11:28:45.531Z,33.20
2019-05-17T11:31:16.462Z,33.20
2019-05-17T11:33:47.429Z,33.20
2019-05-17T11:36:18.486Z,33.20
2019-05-17T11:38:49.399Z,33.20
2019-05-17T11:41:21.733Z,33.20
2019-05-17T11:43:52.194Z,33.20
2019-05-17T11:46:35.361Z,33.20
2019-05-17T11:48:55.251Z,33.10
2019-05-17T11:51:27.705Z,33.10
2019-05-17T11:53:58.592Z,33.10
2019-05-17T11:56:29.580Z,33.10
2019-05-17T11:59:01.425Z,33.10
2019-05-17T12:01:32.636Z,33.00
2019-05-17T12:04:03.700Z,33.00
2019-05-17T12:06:34.527Z,33.00
2019-05-17T12:09:06.769Z,33.00
2019-05-17T12:11:37.629Z,33.00
2019-05-17T12:14:08.547Z,33.00
2019-05-17T12:16:39.486Z,33.00
2019-05-17T12:19:10.229Z,33.00
2019-05-17T12:21:40.999Z,33.00
2019-05-17T12:24:11.974Z,33.00
2019-05-17T12:26:42.722Z,33.00
2019-05-17T12:29:13.650Z,33.00
2019-05-17T12:31:44.316Z,33.00
2019-05-17T12:34:15.176Z,33.00
2019-05-17T12:36:45.994Z,33.00
2019-05-17T12:39:16.667Z,33.00
2019-05-17T12:41:47.522Z,33.00
2019-05-17T12:44:18.503Z,33.00
2019-05-17T12:46:49.361Z,32.90
2019-05-17T12:49:20.288Z,32.90
2019-05-17T12:51:51.234Z,32.90
2019-05-17T12:54:22.247Z,32.90
2019-05-17T12:56:53.171Z,32.80
2019-05-17T12:59:36.109Z,32.90
2019-05-17T13:02:07.127Z,32.90
2019-05-17T13:04:38.061Z,32.80
2019-05-17T13:07:09.044Z,32.80
2019-05-17T13:09:40.025Z,32.80
2019-05-17T13:12:11.048Z,32.80
2019-05-17T13:14:42.088Z,32.80
2019-05-17T13:17:12.951Z,32.80
2019-05-17T13:19:47.952Z,32.80
2019-05-17T13:22:17.286Z,32.90
2019-05-17T13:24:48.332Z,32.80
2019-05-17T13:27:19.205Z,32.80
2019-05-17T13:29:50.201Z,32.80
2019-05-17T13:32:21.284Z,32.80
2019-05-17T13:34:52.209Z,32.80
2019-05-17T13:37:23.154Z,32.80
2019-05-17T13:39:54.127Z,32.80
2019-05-17T13:42:24.939Z,32.80
2019-05-17T13:44:55.939Z,32.80
2019-05-17T13:47:26.719Z,32.70
2019-05-17T13:49:57.593Z,32.70
2019-05-17T13:52:28.609Z,32.70
2019-05-17T13:54:59.862Z,32.70
2019-05-17T13:57:30.689Z,32.70
2019-05-17T14:00:01.516Z,32.70
2019-05-17T14:02:32.782Z,32.60
2019-05-17T14:05:03.674Z,32.60
2019-05-17T14:07:34.906Z,32.60
2019-05-17T14:10:06.819Z,32.60
2019-05-17T14:12:37.587Z,32.60
2019-05-17T14:15:10.348Z,32.50
2019-05-17T14:17:41.698Z,32.50
2019-05-17T14:20:12.796Z,32.50
2019-05-17T14:22:43.575Z,32.50
2019-05-17T14:25:16.243Z,32.50
2019-05-17T14:27:46.974Z,32.40
2019-05-17T14:30:19.416Z,32.50
2019-05-17T14:32:50.351Z,32.40
2019-05-17T14:35:21.211Z,32.40
2019-05-17T14:37:52.176Z,32.40
2019-05-17T14:40:22.979Z,32.40
2019-05-17T14:42:53.964Z,32.40
2019-05-17T14:45:24.736Z,32.40
2019-05-17T14:47:55.738Z,32.40
2019-05-17T14:50:26.583Z,32.40
2019-05-17T14:52:58.484Z,32.30
2019-05-17T14:55:29.456Z,32.30
2019-05-17T14:58:00.382Z,32.30
2019-05-17T15:00:31.466Z,32.30
2019-05-17T15:03:02.324Z,32.30
2019-05-17T15:05:35.189Z,32.30
2019-05-17T15:08:06.110Z,32.30
2019-05-17T15:10:37.012Z,32.30
2019-05-17T15:13:07.757Z,32.30
2019-05-17T15:15:38.681Z,32.30
2019-05-17T15:18:10.070Z,32.30
2019-05-17T15:20:40.934Z,32.20
2019-05-17T15:23:11.936Z,32.20
2019-05-17T15:25:42.828Z,32.20
2019-05-17T15:28:13.800Z,32.20
2019-05-17T15:30:44.835Z,32.20
2019-05-17T15:33:15.964Z,32.10
2019-05-17T15:35:46.873Z,32.10
2019-05-17T15:38:17.775Z,32.10
2019-05-17T15:40:48.545Z,32.10
2019-05-17T15:43:19.449Z,32.10
2019-05-17T15:45:50.259Z,32.10
2019-05-17T15:48:21.115Z,32.00
2019-05-17T15:50:51.969Z,32.00
2019-05-17T15:53:22.936Z,32.00
2019-05-17T15:55:54.182Z,32.00
2019-05-17T15:58:25.260Z,32.00
2019-05-17T16:00:56.108Z,32.00
2019-05-17T16:03:27.033Z,31.90
2019-05-17T16:05:58.064Z,31.90
2019-05-17T16:08:29.748Z,31.90
2019-05-17T16:11:00.935Z,31.90
2019-05-17T16:13:33.810Z,31.90
2019-05-17T16:16:03.833Z,31.80
2019-05-17T16:18:35.166Z,31.80
2019-05-17T16:21:08.489Z,31.80
2019-05-17T16:23:39.421Z,31.80
2019-05-17T16:26:10.234Z,31.80
2019-05-17T16:28:41.101Z,31.80
2019-05-17T16:31:11.908Z,31.80
2019-05-17T16:33:42.902Z,31.80
2019-05-17T16:36:13.998Z,31.70
2019-05-17T16:38:44.862Z,31.60
2019-05-17T16:41:15.675Z,31.60
2019-05-17T16:43:46.726Z,31.60
2019-05-17T16:46:17.805Z,31.50
2019-05-17T16:48:48.887Z,31.50
2019-05-17T16:51:19.765Z,31.50
2019-05-17T16:53:52.831Z,31.40
2019-05-17T16:56:24.007Z,31.40
2019-05-17T16:58:55.303Z,31.30
2019-05-17T17:01:26.226Z,31.30
2019-05-17T17:03:59.615Z,31.30
2019-05-17T17:06:31.780Z,31.20
2019-05-17T17:09:02.603Z,31.20
2019-05-17T17:11:33.749Z,31.20
2019-05-17T17:14:05.883Z,31.10
2019-05-17T17:16:36.628Z,31.10
2019-05-17T17:19:07.475Z,31.00
2019-05-17T17:21:42.654Z,31.00
2019-05-17T17:24:13.522Z,31.00
2019-05-17T17:28:01.625Z,31.00
2019-05-17T17:29:35.130Z,30.90
2019-05-17T17:32:20.799Z,31.00
2019-05-17T17:34:39.649Z,30.90
2019-05-17T17:37:20.708Z,30.90
2019-05-17T17:39:53.322Z,30.90
2019-05-17T17:42:23.624Z,30.80
2019-05-17T17:44:54.562Z,30.80
2019-05-17T17:47:25.503Z,30.80
2019-05-17T17:49:56.420Z,30.80
2019-05-17T17:52:29.914Z,30.70
2019-05-17T17:55:01.015Z,30.70
2019-05-17T17:57:32.912Z,30.70
2019-05-17T18:00:07.310Z,30.70
2019-05-17T18:02:40.114Z,30.60
2019-05-17T18:05:11.952Z,30.60
2019-05-17T18:07:42.986Z,30.60
2019-05-17T18:10:18.907Z,30.50
2019-05-17T18:12:50.105Z,30.50
2019-05-17T18:15:23.587Z,30.50
2019-05-17T18:17:57.295Z,30.50
2019-05-17T18:20:28.447Z,30.40
2019-05-17T18:23:00.518Z,30.40
2019-05-17T18:25:32.758Z,30.40
2019-05-17T18:28:03.640Z,30.40
2019-05-17T18:30:34.979Z,30.40
2019-05-17T18:33:06.226Z,30.40
2019-05-17T18:35:37.851Z,30.40
2019-05-17T18:38:09.247Z,30.30
2019-05-17T18:40:44.346Z,30.30
2019-05-17T18:43:16.420Z,30.30
2019-05-17T18:45:47.389Z,30.30
2019-05-17T18:48:18.463Z,30.30
2019-05-17T18:50:49.203Z,30.30
2019-05-17T18:53:21.211Z,30.20
2019-05-17T18:55:51.995Z,30.20
2019-05-17T18:58:23.535Z,30.20
2019-05-17T19:00:55.342Z,30.20
2019-05-17T19:03:27.578Z,30.20
2019-05-17T19:05:58.550Z,30.20
2019-05-17T19:08:32.511Z,30.20
2019-05-17T19:11:03.704Z,30.20
2019-05-17T19:13:35.061Z,30.10
2019-05-17T19:16:05.919Z,30.10
2019-05-17T19:18:36.732Z,30.10
2019-05-17T19:21:07.619Z,30.10
2019-05-17T19:23:39.496Z,30.00
2019-05-17T19:26:10.326Z,30.00
2019-05-17T19:28:45.416Z,30.00
2019-05-17T19:31:15.806Z,30.00
2019-05-17T19:33:47.974Z,30.00
2019-05-17T19:36:18.854Z,30.00
2019-05-17T19:38:52.740Z,30.00
2019-05-17T19:41:23.987Z,29.90
2019-05-17T19:43:55.005Z,29.90
2019-05-17T19:46:25.866Z,29.80
2019-05-17T19:48:57.492Z,29.80
2019-05-17T19:51:28.338Z,29.80
2019-05-17T19:53:59.260Z,29.80
2019-05-17T19:56:30.251Z,29.80
2019-05-17T19:59:01.221Z,29.70
2019-05-17T20:01:33.312Z,29.80
2019-05-17T20:04:06.105Z,29.70
2019-05-17T20:06:38.572Z,29.70
2019-05-17T20:09:09.228Z,29.70
2019-05-17T20:11:40.111Z,29.70
2019-05-17T20:14:11.136Z,29.70
2019-05-17T20:16:42.022Z,29.70
2019-05-17T20:19:26.213Z,29.70
2019-05-17T20:21:57.268Z,29.60
2019-05-17T20:24:28.256Z,29.60
2019-05-17T20:26:59.908Z,29.60
2019-05-17T20:29:30.784Z,29.60
2019-05-17T20:32:01.630Z,29.60
2019-05-17T20:34:32.439Z,29.60
2019-05-17T20:37:03.367Z,29.60
2019-05-17T20:39:34.310Z,29.60
2019-05-17T20:42:05.169Z,29.60
2019-05-17T20:44:37.076Z,29.60
2019-05-17T20:47:07.923Z,29.60
2019-05-17T20:49:43.433Z,29.60
2019-05-17T20:52:17.156Z,29.50
2019-05-17T20:54:48.960Z,29.50
2019-05-17T20:57:19.905Z,29.50
2019-05-17T20:59:52.049Z,29.50
2019-05-17T21:02:23.066Z,29.50
2019-05-17T21:04:54.429Z,29.50
2019-05-17T21:07:25.358Z,29.50
2019-05-17T21:09:56.261Z,29.50
2019-05-17T21:12:27.270Z,29.40
2019-05-17T21:14:58.234Z,29.40
2019-05-17T21:17:29.213Z,29.40
2019-05-17T21:20:00.103Z,29.30
2019-05-17T21:22:31.264Z,29.30
2019-05-17T21:25:02.211Z,29.30
2019-05-17T21:27:33.317Z,29.30
2019-05-17T21:30:04.556Z,29.30
2019-05-17T21:32:35.349Z,29.30
2019-05-17T21:35:07.704Z,29.20
2019-05-17T21:37:41.314Z,29.20
2019-05-17T21:40:13.342Z,29.20
2019-05-17T21:42:44.425Z,29.20
2019-05-17T21:45:15.517Z,29.20
2019-05-17T21:47:46.521Z,29.20
2019-05-17T21:50:18.148Z,29.20
2019-05-17T21:52:49.063Z,29.20
2019-05-17T21:55:20.103Z,29.10
2019-05-17T21:57:51.005Z,29.10
2019-05-17T22:00:25.677Z,29.10
2019-05-17T22:02:56.675Z,29.10
2019-05-17T22:05:27.557Z,29.10
2019-05-17T22:07:58.429Z,29.10
2019-05-17T22:10:29.330Z,29.10
2019-05-17T22:13:00.287Z,29.00
2019-05-17T22:15:31.049Z,29.00
2019-05-17T22:18:01.902Z,29.00
2019-05-17T22:20:32.921Z,28.90
2019-05-17T22:23:04.033Z,28.90
2019-05-17T22:25:34.950Z,28.90
2019-05-17T22:28:05.949Z,28.90
2019-05-17T22:30:36.672Z,29.00
2019-05-17T22:33:07.636Z,28.90
2019-05-17T22:35:38.621Z,28.90
2019-05-17T22:38:09.550Z,28.90
2019-05-17T22:40:40.368Z,28.90
2019-05-17T22:43:11.402Z,28.90
2019-05-17T22:45:43.036Z,28.90
2019-05-17T22:48:13.911Z,28.90
2019-05-17T22:50:45.422Z,28.90
2019-05-17T22:53:16.342Z,28.90
2019-05-17T22:55:47.236Z,28.90
2019-05-17T22:58:18.230Z,28.80
2019-05-17T23:00:49.240Z,28.80
2019-05-17T23:03:20.183Z,28.80
2019-05-17T23:05:51.244Z,28.80
2019-05-17T23:08:22.491Z,28.80
2019-05-17T23:10:53.441Z,28.80
2019-05-17T23:13:24.425Z,28.80
2019-05-17T23:15:56.852Z,28.80
2019-05-17T23:18:27.716Z,28.90
2019-05-17T23:20:58.697Z,28.90
2019-05-17T23:23:29.661Z,28.90
2019-05-17T23:26:00.753Z,28.90
2019-05-17T23:28:31.663Z,28.90
2019-05-17T23:31:02.584Z,28.90
2019-05-17T23:33:33.580Z,28.90
2019-05-17T23:36:04.630Z,28.90
2019-05-17T23:38:35.481Z,28.90
2019-05-17T23:41:06.396Z,29.00
2019-05-17T23:43:37.146Z,29.00
2019-05-17T23:46:08.806Z,29.00
2019-05-17T23:48:39.659Z,29.00
2019-05-17T23:51:10.526Z,29.10
2019-05-17T23:53:41.324Z,29.10
2019-05-17T23:56:12.224Z,29.10
2019-05-17T23:58:43.056Z,29.10
